sensor_id;sensor_type;location;lat;lon;timestamp;P1;durP1;ratioP1;P2;durP2;ratioP2
8409;SDS011;4242;53.670;10.080;2022-07-29T00:00:04;1.40;;;1.30;;
8409;SDS011;4242;53.670;10.080;2022-07-29T00:02:30;2.07;;;1.40;;
8409;SDS011;4242;53.670;10.080;2022-07-29T00:04:57;2.07;;;1.40;;
8409;SDS011;4242;53.670;10.080;2022-07-29T00:07:23;4.57;;;1.40;;
8409;SDS011;4242;53.670;10.080;2022-07-29T00:09:49;4.70;;;1.50;;
8409;SDS011;4242;53.670;10.080;2022-07-29T00:12:15;1.27;;;1.00;;
8409;SDS011;4242;53.670;10.080;2022-07-29T00:14:41;4.53;;;1.50;;
8409;SDS011;4242;53.670;10.080;2022-07-29T00:17:07;3.93;;;1.40;;
8409;SDS011;4242;53.670;10.080;2022-07-29T00:19:33;3.83;;;1.53;;
8409;SDS011;4242;53.670;10.080;2022-07-29T00:21:59;2.53;;;1.43;;
8409;SDS011;4242;53.670;10.080;2022-07-29T00:24:25;2.10;;;1.30;;
8409;SDS011;4242;53.670;10.080;2022-07-29T00:26:51;2.27;;;1.40;;
8409;SDS011;4242;53.670;10.080;2022-07-29T00:29:17;3.37;;;1.50;;
8409;SDS011;4242;53.670;10.080;2022-07-29T00:31:43;5.70;;;1.30;;
8409;SDS011;4242;53.670;10.080;2022-07-29T00:34:09;2.50;;;1.50;;
8409;SDS011;4242;53.670;10.080;2022-07-29T00:36:56;5.03;;;1.33;;
8409;SDS011;4242;53.670;10.080;2022-07-29T00:39:22;3.13;;;1.37;;
8409;SDS011;4242;53.670;10.080;2022-07-29T00:41:48;2.77;;;1.40;;
8409;SDS011;4242;53.670;10.080;2022-07-29T00:44:14;4.13;;;1.70;;
8409;SDS011;4242;53.670;10.080;2022-07-29T00:46:40;2.33;;;1.50;;
8409;SDS011;4242;53.670;10.080;2022-07-29T00:49:06;1.93;;;1.67;;
8409;SDS011;4242;53.670;10.080;2022-07-29T00:51:33;2.70;;;1.50;;
8409;SDS011;4242;53.670;10.080;2022-07-29T00:54:00;1.40;;;1.30;;
8409;SDS011;4242;53.670;10.080;2022-07-29T00:56:26;2.57;;;1.50;;
8409;SDS011;4242;53.670;10.080;2022-07-29T00:58:52;1.87;;;1.30;;
8409;SDS011;4242;53.670;10.080;2022-07-29T01:01:19;4.57;;;1.47;;
8409;SDS011;4242;53.670;10.080;2022-07-29T01:03:45;3.23;;;1.50;;
8409;SDS011;4242;53.670;10.080;2022-07-29T01:06:11;3.47;;;1.27;;
8409;SDS011;4242;53.670;10.080;2022-07-29T01:08:37;3.90;;;1.40;;
8409;SDS011;4242;53.670;10.080;2022-07-29T01:11:03;3.53;;;1.50;;
8409;SDS011;4242;53.670;10.080;2022-07-29T01:13:29;2.07;;;1.30;;
8409;SDS011;4242;53.670;10.080;2022-07-29T01:16:02;1.97;;;1.37;;
8409;SDS011;4242;53.670;10.080;2022-07-29T01:18:34;1.80;;;1.33;;
8409;SDS011;4242;53.670;10.080;2022-07-29T01:21:12;3.67;;;1.50;;
8409;SDS011;4242;53.670;10.080;2022-07-29T01:28:38;1.87;;;1.40;;
8409;SDS011;4242;53.670;10.080;2022-07-29T01:31:05;2.77;;;1.60;;
8409;SDS011;4242;53.670;10.080;2022-07-29T01:33:35;2.80;;;1.50;;
8409;SDS011;4242;53.670;10.080;2022-07-29T01:36:14;3.70;;;1.70;;
8409;SDS011;4242;53.670;10.080;2022-07-29T01:38:42;2.87;;;1.50;;
8409;SDS011;4242;53.670;10.080;2022-07-29T01:41:09;3.00;;;1.60;;
8409;SDS011;4242;53.670;10.080;2022-07-29T01:43:44;2.10;;;1.43;;
8409;SDS011;4242;53.670;10.080;2022-07-29T01:46:14;4.90;;;1.70;;
8409;SDS011;4242;53.670;10.080;2022-07-29T01:48:45;2.07;;;1.70;;
8409;SDS011;4242;53.670;10.080;2022-07-29T01:51:19;1.90;;;1.60;;
8409;SDS011;4242;53.670;10.080;2022-07-29T01:53:57;3.83;;;1.57;;
8409;SDS011;4242;53.670;10.080;2022-07-29T01:56:26;1.93;;;1.50;;
8409;SDS011;4242;53.670;10.080;2022-07-29T01:58:55;1.90;;;1.50;;
8409;SDS011;4242;53.670;10.080;2022-07-29T02:01:22;3.73;;;1.60;;
8409;SDS011;4242;53.670;10.080;2022-07-29T02:03:49;2.43;;;1.77;;
8409;SDS011;4242;53.670;10.080;2022-07-29T02:06:17;2.17;;;1.47;;
8409;SDS011;4242;53.670;10.080;2022-07-29T02:08:44;2.27;;;1.70;;
8409;SDS011;4242;53.670;10.080;2022-07-29T02:11:11;3.27;;;1.63;;
8409;SDS011;4242;53.670;10.080;2022-07-29T02:13:37;4.57;;;1.77;;
8409;SDS011;4242;53.670;10.080;2022-07-29T02:16:04;3.37;;;1.63;;
8409;SDS011;4242;53.670;10.080;2022-07-29T02:18:31;1.63;;;1.50;;
8409;SDS011;4242;53.670;10.080;2022-07-29T02:20:58;3.63;;;1.60;;
8409;SDS011;4242;53.670;10.080;2022-07-29T02:23:24;2.07;;;1.60;;
8409;SDS011;4242;53.670;10.080;2022-07-29T02:25:53;3.93;;;1.57;;
8409;SDS011;4242;53.670;10.080;2022-07-29T02:28:20;4.00;;;1.80;;
8409;SDS011;4242;53.670;10.080;2022-07-29T02:30:47;3.07;;;1.67;;
8409;SDS011;4242;53.670;10.080;2022-07-29T02:33:15;4.10;;;1.70;;
8409;SDS011;4242;53.670;10.080;2022-07-29T02:35:41;3.40;;;1.57;;
8409;SDS011;4242;53.670;10.080;2022-07-29T02:38:09;3.17;;;1.70;;
8409;SDS011;4242;53.670;10.080;2022-07-29T02:40:56;7.73;;;1.77;;
8409;SDS011;4242;53.670;10.080;2022-07-29T02:43:22;4.57;;;1.90;;
8409;SDS011;4242;53.670;10.080;2022-07-29T02:45:51;2.23;;;1.70;;
8409;SDS011;4242;53.670;10.080;2022-07-29T02:48:18;2.93;;;2.10;;
8409;SDS011;4242;53.670;10.080;2022-07-29T02:50:50;2.63;;;1.70;;
8409;SDS011;4242;53.670;10.080;2022-07-29T02:53:18;2.40;;;1.70;;
8409;SDS011;4242;53.670;10.080;2022-07-29T02:58:47;1.77;;;1.60;;
8409;SDS011;4242;53.670;10.080;2022-07-29T03:01:16;2.40;;;2.10;;
8409;SDS011;4242;53.670;10.080;2022-07-29T03:03:45;4.73;;;1.70;;
8409;SDS011;4242;53.670;10.080;2022-07-29T03:06:12;3.57;;;2.10;;
8409;SDS011;4242;53.670;10.080;2022-07-29T03:08:39;2.67;;;1.87;;
8409;SDS011;4242;53.670;10.080;2022-07-29T03:11:06;3.20;;;2.07;;
8409;SDS011;4242;53.670;10.080;2022-07-29T03:13:33;3.50;;;1.97;;
8409;SDS011;4242;53.670;10.080;2022-07-29T03:16:00;3.57;;;2.20;;
8409;SDS011;4242;53.670;10.080;2022-07-29T03:18:26;6.20;;;2.30;;
8409;SDS011;4242;53.670;10.080;2022-07-29T03:20:52;5.80;;;2.07;;
8409;SDS011;4242;53.670;10.080;2022-07-29T03:23:19;4.73;;;1.90;;
8409;SDS011;4242;53.670;10.080;2022-07-29T03:25:46;4.03;;;2.10;;
8409;SDS011;4242;53.670;10.080;2022-07-29T03:28:13;2.93;;;1.90;;
8409;SDS011;4242;53.670;10.080;2022-07-29T03:30:39;3.10;;;2.10;;
8409;SDS011;4242;53.670;10.080;2022-07-29T03:33:05;7.63;;;2.30;;
8409;SDS011;4242;53.670;10.080;2022-07-29T03:35:31;3.90;;;2.17;;
8409;SDS011;4242;53.670;10.080;2022-07-29T03:37:58;3.50;;;2.33;;
8409;SDS011;4242;53.670;10.080;2022-07-29T03:40:33;4.20;;;1.93;;
8409;SDS011;4242;53.670;10.080;2022-07-29T03:43:01;6.23;;;2.10;;
8409;SDS011;4242;53.670;10.080;2022-07-29T03:45:27;2.90;;;2.13;;
8409;SDS011;4242;53.670;10.080;2022-07-29T03:47:55;3.83;;;2.30;;
8409;SDS011;4242;53.670;10.080;2022-07-29T03:50:22;5.63;;;2.00;;
8409;SDS011;4242;53.670;10.080;2022-07-29T03:52:48;2.43;;;1.93;;
8409;SDS011;4242;53.670;10.080;2022-07-29T03:55:15;5.10;;;2.37;;
8409;SDS011;4242;53.670;10.080;2022-07-29T03:57:41;3.87;;;2.20;;
8409;SDS011;4242;53.670;10.080;2022-07-29T04:00:08;2.73;;;2.43;;
8409;SDS011;4242;53.670;10.080;2022-07-29T04:02:36;4.10;;;2.30;;
8409;SDS011;4242;53.670;10.080;2022-07-29T04:05:02;5.60;;;2.57;;
8409;SDS011;4242;53.670;10.080;2022-07-29T04:07:28;3.83;;;1.93;;
8409;SDS011;4242;53.670;10.080;2022-07-29T04:09:54;5.60;;;2.30;;
8409;SDS011;4242;53.670;10.080;2022-07-29T04:12:20;4.73;;;2.10;;
8409;SDS011;4242;53.670;10.080;2022-07-29T04:14:46;5.47;;;2.43;;
8409;SDS011;4242;53.670;10.080;2022-07-29T04:17:13;6.70;;;2.10;;
8409;SDS011;4242;53.670;10.080;2022-07-29T04:19:39;3.43;;;2.17;;
8409;SDS011;4242;53.670;10.080;2022-07-29T04:22:05;5.63;;;2.20;;
8409;SDS011;4242;53.670;10.080;2022-07-29T04:24:31;4.20;;;2.27;;
8409;SDS011;4242;53.670;10.080;2022-07-29T04:26:57;4.67;;;2.40;;
8409;SDS011;4242;53.670;10.080;2022-07-29T04:29:23;5.97;;;2.10;;
8409;SDS011;4242;53.670;10.080;2022-07-29T04:31:49;3.57;;;2.17;;
8409;SDS011;4242;53.670;10.080;2022-07-29T04:34:15;3.13;;;2.27;;
8409;SDS011;4242;53.670;10.080;2022-07-29T04:36:41;3.00;;;2.00;;
8409;SDS011;4242;53.670;10.080;2022-07-29T04:39:07;5.10;;;2.30;;
8409;SDS011;4242;53.670;10.080;2022-07-29T04:41:33;3.83;;;2.20;;
8409;SDS011;4242;53.670;10.080;2022-07-29T04:43:59;4.23;;;2.10;;
8409;SDS011;4242;53.670;10.080;2022-07-29T04:46:29;5.13;;;2.20;;
8409;SDS011;4242;53.670;10.080;2022-07-29T04:48:55;4.93;;;2.40;;
8409;SDS011;4242;53.670;10.080;2022-07-29T04:51:21;3.83;;;2.30;;
8409;SDS011;4242;53.670;10.080;2022-07-29T04:53:48;4.30;;;2.47;;
8409;SDS011;4242;53.670;10.080;2022-07-29T04:56:14;6.83;;;2.30;;
8409;SDS011;4242;53.670;10.080;2022-07-29T04:58:40;3.60;;;2.20;;
8409;SDS011;4242;53.670;10.080;2022-07-29T05:01:05;4.87;;;2.30;;
8409;SDS011;4242;53.670;10.080;2022-07-29T05:03:31;4.93;;;2.50;;
8409;SDS011;4242;53.670;10.080;2022-07-29T05:05:57;4.90;;;2.83;;
8409;SDS011;4242;53.670;10.080;2022-07-29T05:08:23;5.87;;;2.33;;
8409;SDS011;4242;53.670;10.080;2022-07-29T05:10:49;3.53;;;2.23;;
8409;SDS011;4242;53.670;10.080;2022-07-29T05:13:15;3.07;;;2.00;;
8409;SDS011;4242;53.670;10.080;2022-07-29T05:15:41;3.30;;;2.00;;
8409;SDS011;4242;53.670;10.080;2022-07-29T05:18:07;2.27;;;2.00;;
8409;SDS011;4242;53.670;10.080;2022-07-29T05:20:33;3.47;;;2.13;;
8409;SDS011;4242;53.670;10.080;2022-07-29T05:23:00;5.90;;;2.00;;
8409;SDS011;4242;53.670;10.080;2022-07-29T05:25:26;5.07;;;2.30;;
8409;SDS011;4242;53.670;10.080;2022-07-29T05:27:53;2.97;;;2.20;;
8409;SDS011;4242;53.670;10.080;2022-07-29T05:32:47;3.67;;;2.27;;
8409;SDS011;4242;53.670;10.080;2022-07-29T05:35:13;3.97;;;2.23;;
8409;SDS011;4242;53.670;10.080;2022-07-29T05:37:40;3.57;;;2.10;;
8409;SDS011;4242;53.670;10.080;2022-07-29T05:40:06;3.23;;;2.20;;
8409;SDS011;4242;53.670;10.080;2022-07-29T05:42:33;4.23;;;2.10;;
8409;SDS011;4242;53.670;10.080;2022-07-29T05:44:59;3.97;;;2.53;;
8409;SDS011;4242;53.670;10.080;2022-07-29T05:47:25;6.03;;;2.20;;
8409;SDS011;4242;53.670;10.080;2022-07-29T05:49:51;3.10;;;2.10;;
8409;SDS011;4242;53.670;10.080;2022-07-29T05:52:18;3.90;;;1.90;;
8409;SDS011;4242;53.670;10.080;2022-07-29T05:54:45;4.20;;;2.10;;
8409;SDS011;4242;53.670;10.080;2022-07-29T05:57:17;4.53;;;2.57;;
8409;SDS011;4242;53.670;10.080;2022-07-29T05:59:43;4.33;;;2.20;;
8409;SDS011;4242;53.670;10.080;2022-07-29T06:02:09;3.30;;;2.20;;
8409;SDS011;4242;53.670;10.080;2022-07-29T06:04:36;5.03;;;2.60;;
8409;SDS011;4242;53.670;10.080;2022-07-29T06:07:02;2.97;;;2.10;;
8409;SDS011;4242;53.670;10.080;2022-07-29T06:09:29;5.73;;;2.50;;
8409;SDS011;4242;53.670;10.080;2022-07-29T06:11:55;3.67;;;2.03;;
8409;SDS011;4242;53.670;10.080;2022-07-29T06:14:21;6.20;;;2.70;;
8409;SDS011;4242;53.670;10.080;2022-07-29T06:16:47;3.70;;;2.30;;
8409;SDS011;4242;53.670;10.080;2022-07-29T06:19:13;3.07;;;2.37;;
8409;SDS011;4242;53.670;10.080;2022-07-29T06:21:42;4.20;;;2.27;;
8409;SDS011;4242;53.670;10.080;2022-07-29T06:24:08;5.30;;;2.03;;
8409;SDS011;4242;53.670;10.080;2022-07-29T06:26:34;4.10;;;2.30;;
8409;SDS011;4242;53.670;10.080;2022-07-29T06:29:00;4.63;;;2.07;;
8409;SDS011;4242;53.670;10.080;2022-07-29T06:31:26;5.37;;;2.37;;
8409;SDS011;4242;53.670;10.080;2022-07-29T06:33:52;5.57;;;2.33;;
8409;SDS011;4242;53.670;10.080;2022-07-29T06:36:18;4.77;;;2.10;;
8409;SDS011;4242;53.670;10.080;2022-07-29T06:38:44;2.30;;;2.10;;
8409;SDS011;4242;53.670;10.080;2022-07-29T06:41:10;2.63;;;2.00;;
8409;SDS011;4242;53.670;10.080;2022-07-29T06:43:41;4.93;;;2.03;;
8409;SDS011;4242;53.670;10.080;2022-07-29T06:46:12;6.57;;;2.07;;
8409;SDS011;4242;53.670;10.080;2022-07-29T06:48:38;6.83;;;2.00;;
8409;SDS011;4242;53.670;10.080;2022-07-29T06:51:05;3.30;;;2.07;;
8409;SDS011;4242;53.670;10.080;2022-07-29T06:53:32;2.50;;;1.87;;
8409;SDS011;4242;53.670;10.080;2022-07-29T06:55:58;3.93;;;1.87;;
8409;SDS011;4242;53.670;10.080;2022-07-29T06:58:25;4.07;;;2.10;;
8409;SDS011;4242;53.670;10.080;2022-07-29T07:00:51;3.60;;;1.93;;
8409;SDS011;4242;53.670;10.080;2022-07-29T07:03:18;6.37;;;2.20;;
8409;SDS011;4242;53.670;10.080;2022-07-29T07:05:45;3.03;;;2.00;;
8409;SDS011;4242;53.670;10.080;2022-07-29T07:08:12;2.30;;;2.00;;
8409;SDS011;4242;53.670;10.080;2022-07-29T07:10:38;8.07;;;2.00;;
8409;SDS011;4242;53.670;10.080;2022-07-29T07:13:05;5.20;;;2.20;;
8409;SDS011;4242;53.670;10.080;2022-07-29T07:15:31;5.40;;;2.33;;
8409;SDS011;4242;53.670;10.080;2022-07-29T07:17:57;1.90;;;1.80;;
8409;SDS011;4242;53.670;10.080;2022-07-29T07:20:23;2.33;;;1.50;;
8409;SDS011;4242;53.670;10.080;2022-07-29T07:22:50;3.40;;;2.00;;
8409;SDS011;4242;53.670;10.080;2022-07-29T07:25:16;5.27;;;2.37;;
8409;SDS011;4242;53.670;10.080;2022-07-29T07:27:42;2.27;;;1.60;;
8409;SDS011;4242;53.670;10.080;2022-07-29T07:30:08;2.43;;;1.77;;
8409;SDS011;4242;53.670;10.080;2022-07-29T07:32:35;2.77;;;1.90;;
8409;SDS011;4242;53.670;10.080;2022-07-29T07:35:01;2.40;;;1.90;;
8409;SDS011;4242;53.670;10.080;2022-07-29T07:37:27;5.80;;;2.20;;
8409;SDS011;4242;53.670;10.080;2022-07-29T07:39:53;3.63;;;1.87;;
8409;SDS011;4242;53.670;10.080;2022-07-29T07:42:20;3.40;;;2.10;;
8409;SDS011;4242;53.670;10.080;2022-07-29T07:44:46;2.67;;;1.60;;
8409;SDS011;4242;53.670;10.080;2022-07-29T07:47:13;3.80;;;2.00;;
8409;SDS011;4242;53.670;10.080;2022-07-29T07:49:39;2.67;;;1.90;;
8409;SDS011;4242;53.670;10.080;2022-07-29T07:52:05;3.50;;;1.80;;
8409;SDS011;4242;53.670;10.080;2022-07-29T07:54:31;5.03;;;1.80;;
8409;SDS011;4242;53.670;10.080;2022-07-29T07:56:58;2.87;;;1.90;;
8409;SDS011;4242;53.670;10.080;2022-07-29T07:59:24;4.27;;;2.13;;
8409;SDS011;4242;53.670;10.080;2022-07-29T08:01:50;3.63;;;2.00;;
8409;SDS011;4242;53.670;10.080;2022-07-29T08:04:16;2.20;;;1.60;;
8409;SDS011;4242;53.670;10.080;2022-07-29T08:06:42;5.97;;;1.83;;
8409;SDS011;4242;53.670;10.080;2022-07-29T08:09:08;4.03;;;1.90;;
8409;SDS011;4242;53.670;10.080;2022-07-29T08:11:34;1.73;;;1.63;;
8409;SDS011;4242;53.670;10.080;2022-07-29T08:14:00;3.37;;;1.60;;
8409;SDS011;4242;53.670;10.080;2022-07-29T08:16:26;4.03;;;1.70;;
8409;SDS011;4242;53.670;10.080;2022-07-29T08:18:53;2.97;;;2.00;;
8409;SDS011;4242;53.670;10.080;2022-07-29T08:21:22;3.10;;;1.90;;
8409;SDS011;4242;53.670;10.080;2022-07-29T08:23:48;2.57;;;1.70;;
8409;SDS011;4242;53.670;10.080;2022-07-29T08:26:17;4.17;;;1.87;;
8409;SDS011;4242;53.670;10.080;2022-07-29T08:28:43;5.30;;;2.00;;
8409;SDS011;4242;53.670;10.080;2022-07-29T08:31:11;4.57;;;1.90;;
8409;SDS011;4242;53.670;10.080;2022-07-29T08:33:37;5.50;;;1.90;;
8409;SDS011;4242;53.670;10.080;2022-07-29T08:36:04;2.87;;;1.90;;
8409;SDS011;4242;53.670;10.080;2022-07-29T08:38:31;3.67;;;1.90;;
8409;SDS011;4242;53.670;10.080;2022-07-29T08:40:58;3.23;;;1.77;;
8409;SDS011;4242;53.670;10.080;2022-07-29T08:43:24;7.13;;;1.93;;
8409;SDS011;4242;53.670;10.080;2022-07-29T08:45:50;5.53;;;1.97;;
8409;SDS011;4242;53.670;10.080;2022-07-29T08:48:20;4.77;;;1.90;;
8409;SDS011;4242;53.670;10.080;2022-07-29T08:50:47;2.70;;;1.77;;
8409;SDS011;4242;53.670;10.080;2022-07-29T08:53:14;3.27;;;1.80;;
8409;SDS011;4242;53.670;10.080;2022-07-29T08:55:42;5.43;;;1.80;;
8409;SDS011;4242;53.670;10.080;2022-07-29T08:58:09;6.10;;;1.80;;
8409;SDS011;4242;53.670;10.080;2022-07-29T09:00:36;3.35;;;1.95;;
8409;SDS011;4242;53.670;10.080;2022-07-29T09:03:02;2.40;;;1.88;;
8409;SDS011;4242;53.670;10.080;2022-07-29T09:05:30;2.00;;;1.77;;
8409;SDS011;4242;53.670;10.080;2022-07-29T09:07:57;3.95;;;1.60;;
8409;SDS011;4242;53.670;10.080;2022-07-29T09:10:23;3.85;;;1.85;;
8409;SDS011;4242;53.670;10.080;2022-07-29T09:12:49;5.60;;;1.90;;
8409;SDS011;4242;53.670;10.080;2022-07-29T09:15:15;6.07;;;1.80;;
8409;SDS011;4242;53.670;10.080;2022-07-29T09:17:42;3.75;;;1.70;;
8409;SDS011;4242;53.670;10.080;2022-07-29T09:20:13;11.40;;;2.17;;
8409;SDS011;4242;53.670;10.080;2022-07-29T09:22:39;5.30;;;1.90;;
8409;SDS011;4242;53.670;10.080;2022-07-29T09:25:05;4.32;;;2.22;;
8409;SDS011;4242;53.670;10.080;2022-07-29T09:27:32;6.47;;;1.95;;
8409;SDS011;4242;53.670;10.080;2022-07-29T09:30:03;2.95;;;1.65;;
8409;SDS011;4242;53.670;10.080;2022-07-29T09:32:30;2.53;;;1.50;;
8409;SDS011;4242;53.670;10.080;2022-07-29T09:37:42;3.90;;;1.80;;
8409;SDS011;4242;53.670;10.080;2022-07-29T09:40:18;5.00;;;1.80;;
8409;SDS011;4242;53.670;10.080;2022-07-29T09:42:44;3.20;;;1.80;;
8409;SDS011;4242;53.670;10.080;2022-07-29T09:45:11;1.85;;;1.60;;
8409;SDS011;4242;53.670;10.080;2022-07-29T09:50:06;5.60;;;1.70;;
8409;SDS011;4242;53.670;10.080;2022-07-29T09:52:32;3.42;;;1.58;;
8409;SDS011;4242;53.670;10.080;2022-07-29T09:55:10;1.60;;;1.50;;
8409;SDS011;4242;53.670;10.080;2022-07-29T09:57:36;4.65;;;1.75;;
8409;SDS011;4242;53.670;10.080;2022-07-29T10:02:35;3.15;;;1.67;;
8409;SDS011;4242;53.670;10.080;2022-07-29T10:05:02;3.75;;;1.55;;
8409;SDS011;4242;53.670;10.080;2022-07-29T10:07:48;3.45;;;1.65;;
8409;SDS011;4242;53.670;10.080;2022-07-29T10:10:18;1.63;;;1.33;;
8409;SDS011;4242;53.670;10.080;2022-07-29T10:12:48;3.10;;;1.45;;
8409;SDS011;4242;53.670;10.080;2022-07-29T10:15:15;1.70;;;1.33;;
8409;SDS011;4242;53.670;10.080;2022-07-29T10:17:41;3.05;;;1.35;;
8409;SDS011;4242;53.670;10.080;2022-07-29T10:20:08;1.77;;;1.23;;
8409;SDS011;4242;53.670;10.080;2022-07-29T10:22:34;3.63;;;1.30;;
8409;SDS011;4242;53.670;10.080;2022-07-29T10:25:00;2.72;;;1.40;;
8409;SDS011;4242;53.670;10.080;2022-07-29T10:27:27;1.50;;;1.40;;
8409;SDS011;4242;53.670;10.080;2022-07-29T10:29:53;3.90;;;1.45;;
8409;SDS011;4242;53.670;10.080;2022-07-29T10:32:38;2.70;;;1.50;;
8409;SDS011;4242;53.670;10.080;2022-07-29T10:35:12;4.05;;;1.30;;
8409;SDS011;4242;53.670;10.080;2022-07-29T10:37:46;2.78;;;1.33;;
8409;SDS011;4242;53.670;10.080;2022-07-29T10:40:39;2.53;;;1.40;;
8409;SDS011;4242;53.670;10.080;2022-07-29T10:43:28;1.73;;;1.30;;
8409;SDS011;4242;53.670;10.080;2022-07-29T10:45:55;1.88;;;1.20;;
8409;SDS011;4242;53.670;10.080;2022-07-29T10:48:22;2.88;;;1.30;;
8409;SDS011;4242;53.670;10.080;2022-07-29T10:50:52;3.00;;;1.30;;
8409;SDS011;4242;53.670;10.080;2022-07-29T10:53:19;3.25;;;1.23;;
8409;SDS011;4242;53.670;10.080;2022-07-29T10:55:45;4.22;;;1.48;;
8409;SDS011;4242;53.670;10.080;2022-07-29T10:58:17;3.25;;;1.23;;
8409;SDS011;4242;53.670;10.080;2022-07-29T11:00:44;2.05;;;1.40;;
8409;SDS011;4242;53.670;10.080;2022-07-29T11:03:28;3.83;;;1.40;;
8409;SDS011;4242;53.670;10.080;2022-07-29T11:05:56;1.77;;;1.35;;
8409;SDS011;4242;53.670;10.080;2022-07-29T11:08:22;3.63;;;1.40;;
8409;SDS011;4242;53.670;10.080;2022-07-29T11:10:50;1.42;;;1.30;;
8409;SDS011;4242;53.670;10.080;2022-07-29T11:16:01;2.53;;;1.40;;
8409;SDS011;4242;53.670;10.080;2022-07-29T11:18:27;1.85;;;1.40;;
8409;SDS011;4242;53.670;10.080;2022-07-29T11:20:53;4.68;;;1.30;;
8409;SDS011;4242;53.670;10.080;2022-07-29T11:31:09;3.42;;;1.40;;
8409;SDS011;4242;53.670;10.080;2022-07-29T11:33:35;1.55;;;1.42;;
8409;SDS011;4242;53.670;10.080;2022-07-29T11:36:09;1.65;;;1.15;;
8409;SDS011;4242;53.670;10.080;2022-07-29T11:38:35;2.47;;;1.50;;
8409;SDS011;4242;53.670;10.080;2022-07-29T11:43:56;2.63;;;1.25;;
8409;SDS011;4242;53.670;10.080;2022-07-29T11:49:22;3.33;;;1.38;;
8409;SDS011;4242;53.670;10.080;2022-07-29T11:51:57;2.78;;;1.30;;
8409;SDS011;4242;53.670;10.080;2022-07-29T11:54:26;1.25;;;1.10;;
8409;SDS011;4242;53.670;10.080;2022-07-29T11:56:55;1.40;;;1.30;;
8409;SDS011;4242;53.670;10.080;2022-07-29T11:59:22;1.73;;;1.10;;
8409;SDS011;4242;53.670;10.080;2022-07-29T12:01:56;1.25;;;1.15;;
8409;SDS011;4242;53.670;10.080;2022-07-29T12:04:22;2.97;;;1.20;;
8409;SDS011;4242;53.670;10.080;2022-07-29T12:06:52;4.35;;;1.45;;
8409;SDS011;4242;53.670;10.080;2022-07-29T12:09:19;3.35;;;1.45;;
8409;SDS011;4242;53.670;10.080;2022-07-29T12:11:45;3.45;;;1.20;;
8409;SDS011;4242;53.670;10.080;2022-07-29T12:14:24;2.35;;;1.02;;
8409;SDS011;4242;53.670;10.080;2022-07-29T12:16:50;1.73;;;1.13;;
8409;SDS011;4242;53.670;10.080;2022-07-29T12:19:16;3.22;;;1.45;;
8409;SDS011;4242;53.670;10.080;2022-07-29T12:24:11;2.63;;;1.35;;
8409;SDS011;4242;53.670;10.080;2022-07-29T12:26:48;1.10;;;1.00;;
8409;SDS011;4242;53.670;10.080;2022-07-29T12:29:15;5.28;;;1.30;;
8409;SDS011;4242;53.670;10.080;2022-07-29T12:31:42;3.42;;;1.40;;
8409;SDS011;4242;53.670;10.080;2022-07-29T12:34:08;2.65;;;1.40;;
8409;SDS011;4242;53.670;10.080;2022-07-29T12:36:34;2.25;;;1.40;;
8409;SDS011;4242;53.670;10.080;2022-07-29T12:39:01;1.73;;;1.27;;
8409;SDS011;4242;53.670;10.080;2022-07-29T12:41:28;1.58;;;1.40;;
8409;SDS011;4242;53.670;10.080;2022-07-29T12:43:54;3.08;;;1.38;;
8409;SDS011;4242;53.670;10.080;2022-07-29T12:46:20;1.65;;;1.25;;
8409;SDS011;4242;53.670;10.080;2022-07-29T12:48:49;13.45;;;1.75;;
8409;SDS011;4242;53.670;10.080;2022-07-29T12:51:15;3.53;;;1.40;;
8409;SDS011;4242;53.670;10.080;2022-07-29T12:54:00;1.70;;;1.40;;
8409;SDS011;4242;53.670;10.080;2022-07-29T12:56:27;3.72;;;1.40;;
8409;SDS011;4242;53.670;10.080;2022-07-29T12:58:52;3.25;;;1.50;;
8409;SDS011;4242;53.670;10.080;2022-07-29T13:01:19;2.78;;;1.38;;
8409;SDS011;4242;53.670;10.080;2022-07-29T13:06:34;3.83;;;1.52;;
8409;SDS011;4242;53.670;10.080;2022-07-29T13:13:58;2.72;;;1.42;;
8409;SDS011;4242;53.670;10.080;2022-07-29T13:16:24;3.78;;;1.45;;
8409;SDS011;4242;53.670;10.080;2022-07-29T13:19:02;4.60;;;1.77;;
8409;SDS011;4242;53.670;10.080;2022-07-29T13:21:28;1.67;;;1.23;;
8409;SDS011;4242;53.670;10.080;2022-07-29T13:23:54;5.22;;;1.70;;
8409;SDS011;4242;53.670;10.080;2022-07-29T13:26:20;6.00;;;1.70;;
8409;SDS011;4242;53.670;10.080;2022-07-29T13:28:46;2.55;;;1.35;;
8409;SDS011;4242;53.670;10.080;2022-07-29T13:31:12;5.05;;;1.50;;
8409;SDS011;4242;53.670;10.080;2022-07-29T13:33:38;2.70;;;1.60;;
8409;SDS011;4242;53.670;10.080;2022-07-29T13:36:04;1.70;;;1.30;;
8409;SDS011;4242;53.670;10.080;2022-07-29T13:38:30;4.82;;;1.98;;
8409;SDS011;4242;53.670;10.080;2022-07-29T13:40:56;2.92;;;1.52;;
8409;SDS011;4242;53.670;10.080;2022-07-29T13:43:23;4.75;;;1.70;;
8409;SDS011;4242;53.670;10.080;2022-07-29T13:45:49;2.45;;;1.60;;
8409;SDS011;4242;53.670;10.080;2022-07-29T13:48:15;3.10;;;1.60;;
8409;SDS011;4242;53.670;10.080;2022-07-29T13:50:41;6.03;;;1.45;;
8409;SDS011;4242;53.670;10.080;2022-07-29T13:53:07;2.55;;;1.45;;
8409;SDS011;4242;53.670;10.080;2022-07-29T13:55:33;3.10;;;1.60;;
8409;SDS011;4242;53.670;10.080;2022-07-29T13:57:59;2.42;;;1.38;;
8409;SDS011;4242;53.670;10.080;2022-07-29T14:00:25;4.10;;;1.40;;
8409;SDS011;4242;53.670;10.080;2022-07-29T14:02:51;5.13;;;1.55;;
8409;SDS011;4242;53.670;10.080;2022-07-29T14:05:17;2.05;;;1.55;;
8409;SDS011;4242;53.670;10.080;2022-07-29T14:07:43;3.08;;;1.50;;
8409;SDS011;4242;53.670;10.080;2022-07-29T14:10:09;1.95;;;1.40;;
8409;SDS011;4242;53.670;10.080;2022-07-29T14:12:35;3.22;;;1.38;;
8409;SDS011;4242;53.670;10.080;2022-07-29T14:15:02;1.80;;;1.50;;
8409;SDS011;4242;53.670;10.080;2022-07-29T14:17:28;2.65;;;1.52;;
8409;SDS011;4242;53.670;10.080;2022-07-29T14:19:54;1.55;;;1.45;;
8409;SDS011;4242;53.670;10.080;2022-07-29T14:22:20;3.78;;;1.20;;
8409;SDS011;4242;53.670;10.080;2022-07-29T14:24:46;2.13;;;1.80;;
8409;SDS011;4242;53.670;10.080;2022-07-29T14:27:12;2.00;;;1.30;;
8409;SDS011;4242;53.670;10.080;2022-07-29T14:29:38;5.15;;;1.42;;
8409;SDS011;4242;53.670;10.080;2022-07-29T14:32:04;2.55;;;1.10;;
8409;SDS011;4242;53.670;10.080;2022-07-29T14:34:31;1.98;;;1.20;;
8409;SDS011;4242;53.670;10.080;2022-07-29T14:36:57;3.90;;;1.30;;
8409;SDS011;4242;53.670;10.080;2022-07-29T14:39:23;5.07;;;1.65;;
8409;SDS011;4242;53.670;10.080;2022-07-29T14:41:49;4.07;;;1.50;;
8409;SDS011;4242;53.670;10.080;2022-07-29T14:44:16;2.80;;;1.33;;
8409;SDS011;4242;53.670;10.080;2022-07-29T14:46:42;2.83;;;1.35;;
8409;SDS011;4242;53.670;10.080;2022-07-29T14:49:08;3.50;;;1.40;;
8409;SDS011;4242;53.670;10.080;2022-07-29T14:51:34;6.05;;;1.40;;
8409;SDS011;4242;53.670;10.080;2022-07-29T14:54:00;1.30;;;1.20;;
8409;SDS011;4242;53.670;10.080;2022-07-29T14:56:26;3.42;;;1.33;;
8409;SDS011;4242;53.670;10.080;2022-07-29T14:58:54;5.05;;;1.40;;
8409;SDS011;4242;53.670;10.080;2022-07-29T15:01:20;3.33;;;1.55;;
8409;SDS011;4242;53.670;10.080;2022-07-29T15:03:46;5.18;;;1.35;;
8409;SDS011;4242;53.670;10.080;2022-07-29T15:06:12;2.38;;;1.45;;
8409;SDS011;4242;53.670;10.080;2022-07-29T15:08:38;3.40;;;1.35;;
8409;SDS011;4242;53.670;10.080;2022-07-29T15:11:04;5.15;;;1.33;;
8409;SDS011;4242;53.670;10.080;2022-07-29T15:13:30;3.28;;;1.40;;
8409;SDS011;4242;53.670;10.080;2022-07-29T15:15:56;4.78;;;1.30;;
8409;SDS011;4242;53.670;10.080;2022-07-29T15:18:22;2.15;;;1.30;;
8409;SDS011;4242;53.670;10.080;2022-07-29T15:20:48;2.72;;;1.42;;
8409;SDS011;4242;53.670;10.080;2022-07-29T15:23:14;3.13;;;1.65;;
8409;SDS011;4242;53.670;10.080;2022-07-29T15:25:40;1.70;;;1.30;;
8409;SDS011;4242;53.670;10.080;2022-07-29T15:28:06;2.88;;;1.33;;
8409;SDS011;4242;53.670;10.080;2022-07-29T15:30:33;3.53;;;1.30;;
8409;SDS011;4242;53.670;10.080;2022-07-29T15:33:00;2.72;;;1.45;;
8409;SDS011;4242;53.670;10.080;2022-07-29T15:35:26;4.95;;;1.23;;
8409;SDS011;4242;53.670;10.080;2022-07-29T15:37:52;1.58;;;1.25;;
8409;SDS011;4242;53.670;10.080;2022-07-29T15:40:18;1.77;;;1.08;;
8409;SDS011;4242;53.670;10.080;2022-07-29T15:42:44;2.03;;;1.15;;
8409;SDS011;4242;53.670;10.080;2022-07-29T15:45:10;4.38;;;1.20;;